Time;durP1;ratioP1;P1;durP2;ratioP2;P2;SDS_P1;SDS_P2;PMS_P1;PMS_P2;Temp;Humidity;BMP_temperature;BMP_pressure;BME280_temperature;BME280_humidity;BME280_pressure;Samples;Min_cycle;Max_cycle;Signal;HPM_P1;HPM_P2
2021/07/29 00:30:08;;;;;;;5.90;5.30;;;15.60;99.90;;;;;;5004759;23;20501;-67
2021/07/29 00:32:35;;;;;;;11.00;6.60;;;15.60;99.90;;;;;;5001200;28;20473;-67
2021/07/29 00:35:04;;;;;;;8.30;5.53;;;15.60;99.90;;;;;;5000810;28;20900;-67
2021/07/29 00:37:31;;;;;;;6.13;5.60;;;15.60;99.90;;;;;;5000910;28;20511;-66
2021/07/29 00:39:58;;;;;;;6.07;5.47;;;15.70;99.90;;;;;;5000195;28;20520;-66
2021/07/29 00:42:25;;;;;;;7.20;6.37;;;15.70;99.90;;;;;;5000192;28;20468;-66
2021/07/29 00:44:52;;;;;;;8.67;6.80;;;15.70;99.90;;;;;;5000997;28;20940;-66
2021/07/29 00:47:21;;;;;;;7.47;6.77;;;15.60;99.90;;;;;;5000281;28;20494;-66
2021/07/29 00:49:50;;;;;;;7.30;6.07;;;15.60;99.90;;;;;;5000177;28;20469;-66
2021/07/29 00:52:19;;;;;;;6.53;5.90;;;15.70;99.90;;;;;;5000354;28;20465;-66
2021/07/29 00:54:46;;;;;;;6.90;6.20;;;15.60;99.90;;;;;;5000419;28;20781;-66
2021/07/29 00:57:14;;;;;;;7.27;6.57;;;15.70;99.90;;;;;;5000357;28;20460;-66
2021/07/29 00:59:41;;;;;;;8.07;6.57;;;15.60;99.90;;;;;;4999281;28;20898;-66
2021/07/29 01:40:58;;;;;;;7.07;6.30;;;15.10;99.90;;;;;;3104234;23;20475;-68
2021/07/29 01:43:25;;;;;;;4.53;4.13;;;15.00;99.90;;;;;;4999482;28;20551;-68
2021/07/29 01:45:52;;;;;;;6.60;5.13;;;15.00;99.90;;;;;;4999304;28;20457;-67
2021/07/29 02:25:13;;;;;;;4.13;3.73;;;14.60;99.90;;;;;;5234142;23;20499;-68
2021/07/29 02:27:40;;;;;;;6.43;4.00;;;14.70;99.90;;;;;;5018222;28;20562;-68
2021/07/29 02:30:08;;;;;;;5.60;4.40;;;14.70;99.90;;;;;;5018120;28;20510;-68
2021/07/29 02:32:39;;;;;;;4.97;4.53;;;14.70;99.90;;;;;;5018339;28;20471;-68
2021/07/29 02:35:07;;;;;;;5.80;4.80;;;14.70;99.90;;;;;;5018020;28;20487;-69
2021/07/29 02:37:34;;;;;;;6.33;4.10;;;14.70;99.90;;;;;;5018387;28;20468;-69
2021/07/29 02:40:01;;;;;;;6.80;5.13;;;14.70;99.90;;;;;;5017943;28;20800;-68
2021/07/29 02:42:30;;;;;;;6.70;5.00;;;14.70;99.90;;;;;;5018282;28;20517;-68
2021/07/29 02:44:56;;;;;;;7.67;4.83;;;14.70;99.90;;;;;;5017809;28;20463;-68
2021/07/29 02:47:24;;;;;;;6.90;5.37;;;14.60;99.90;;;;;;5017644;28;20535;-69
2021/07/29 02:49:51;;;;;;;6.37;5.40;;;14.60;99.90;;;;;;5017657;28;20503;-69
2021/07/29 02:52:18;;;;;;;6.87;5.50;;;14.60;99.90;;;;;;5017762;28;20526;-69
2021/07/29 02:54:45;;;;;;;8.13;6.40;;;14.50;99.90;;;;;;5017553;28;20562;-69
2021/07/29 02:57:12;;;;;;;9.90;6.47;;;14.50;99.90;;;;;;5017978;28;20869;-70
2021/07/29 02:59:41;;;;;;;6.63;5.47;;;14.40;99.90;;;;;;5017794;28;20522;-68
2021/07/29 03:41:08;;;;;;;5.90;5.23;;;14.40;99.90;;;;;;3851773;23;20824;-69
2021/07/29 03:43:35;;;;;;;9.43;5.70;;;14.40;99.90;;;;;;4998243;28;20519;-69
2021/07/29 03:46:02;;;;;;;7.07;6.37;;;14.40;99.90;;;;;;4997805;28;20522;-70
2021/07/29 03:48:32;;;;;;;8.37;5.60;;;14.30;99.90;;;;;;4997206;28;20507;-70
2021/07/29 03:50:59;;;;;;;7.07;6.10;;;14.30;99.90;;;;;;4997529;28;20465;-70
2021/07/29 03:53:26;;;;;;;8.27;6.10;;;14.30;99.90;;;;;;4997895;28;20505;-70
2021/07/29 03:55:53;;;;;;;7.50;6.37;;;14.20;99.90;;;;;;4997289;28;20471;-70
2021/07/29 03:58:21;;;;;;;10.90;7.00;;;14.20;99.90;;;;;;4997498;28;20465;-70
2021/07/29 04:00:50;;;;;;;7.73;6.93;;;14.20;99.90;;;;;;4997451;28;20468;-69
2021/07/29 04:03:17;;;;;;;7.93;6.53;;;14.20;99.90;;;;;;4990664;28;20786;-70
2021/07/29 04:05:44;;;;;;;8.53;6.10;;;14.20;99.90;;;;;;4992502;28;20473;-70
2021/07/29 04:45:31;;;;;;;9.57;6.33;;;14.50;99.90;;;;;;3569793;23;20496;-71
2021/07/29 04:47:59;;;;;;;11.17;6.60;;;14.60;99.90;;;;;;5000755;28;20524;-69
2021/07/29 04:50:26;;;;;;;7.93;5.23;;;14.70;99.90;;;;;;5000627;28;20469;-70
2021/07/29 04:52:53;;;;;;;6.80;6.20;;;14.70;99.90;;;;;;5000478;28;20503;-70
2021/07/29 04:55:21;;;;;;;6.00;5.43;;;14.70;99.90;;;;;;4999962;28;20501;-70
2021/07/29 04:57:48;;;;;;;6.60;5.93;;;14.80;99.90;;;;;;5000579;28;20496;-70
2021/07/29 05:00:15;;;;;;;12.80;5.57;;;14.80;99.90;;;;;;4992579;28;20510;-71
2021/07/29 05:02:44;;;;;;;13.37;5.23;;;14.80;99.90;;;;;;4998091;28;20472;-70
2021/07/29 05:05:12;;;;;;;7.87;5.77;;;14.80;99.90;;;;;;4998444;28;20464;-70
2021/07/29 05:07:39;;;;;;;9.87;6.07;;;14.80;99.90;;;;;;5018185;28;20778;-70
2021/07/29 05:10:07;;;;;;;6.33;5.73;;;14.80;99.90;;;;;;5018391;28;20456;-70
2021/07/29 05:12:34;;;;;;;8.73;5.20;;;14.80;99.90;;;;;;5018757;28;20464;-70
2021/07/29 05:15:01;;;;;;;10.23;5.70;;;14.90;99.90;;;;;;5019843;28;20546;-70
2021/07/29 05:17:29;;;;;;;7.47;5.13;;;15.00;99.90;;;;;;5019275;28;20523;-70
2021/07/29 05:19:58;;;;;;;10.67;5.80;;;15.00;99.90;;;;;;5019485;28;20468;-70
2021/07/29 05:22:28;;;;;;;5.50;4.63;;;15.10;99.90;;;;;;5017784;28;20531;-70
2021/07/29 05:24:55;;;;;;;8.80;5.00;;;15.10;99.90;;;;;;5019355;28;20443;-70
2021/07/29 05:27:26;;;;;;;7.60;4.70;;;15.10;99.90;;;;;;5018919;28;20484;-70
2021/07/29 05:29:53;;;;;;;9.17;4.57;;;15.10;99.90;;;;;;5019127;28;20464;-70
2021/07/29 05:32:20;;;;;;;6.10;4.40;;;15.10;99.90;;;;;;5019041;28;20470;-70
2021/07/29 05:34:47;;;;;;;12.37;4.17;;;15.10;99.90;;;;;;5018872;28;20546;-69
2021/07/29 05:37:16;;;;;;;5.53;4.07;;;15.00;99.90;;;;;;5019194;28;20448;-69
2021/07/29 05:39:43;;;;;;;8.70;4.27;;;15.10;99.90;;;;;;5017559;28;20460;-69
2021/07/29 05:42:10;;;;;;;10.87;4.50;;;15.10;99.90;;;;;;5018475;28;20456;-69
2021/07/29 05:44:37;;;;;;;7.13;4.10;;;15.10;99.90;;;;;;5014474;28;20484;-69
2021/07/29 05:47:05;;;;;;;7.60;4.90;;;15.20;99.90;;;;;;4999384;28;20460;-69
2021/07/29 05:49:32;;;;;;;6.70;4.80;;;15.20;99.90;;;;;;4999273;28;20527;-71
2021/07/29 05:51:59;;;;;;;6.90;4.80;;;15.30;99.90;;;;;;4999396;28;20519;-69
2021/07/29 05:54:27;;;;;;;7.57;4.10;;;15.30;99.90;;;;;;4998957;28;20527;-69
2021/07/29 05:56:54;;;;;;;9.03;4.17;;;15.40;99.90;;;;;;4999395;28;20535;-69
2021/07/29 05:59:21;;;;;;;5.83;3.80;;;15.50;99.90;;;;;;4984309;28;20458;-71
2021/07/29 06:01:52;;;;;;;11.10;4.63;;;15.60;99.90;;;;;;4984483;28;20461;-69
2021/07/29 06:04:18;;;;;;;10.13;4.17;;;15.70;99.90;;;;;;4968510;28;20478;-69
2021/07/29 06:06:46;;;;;;;6.53;4.60;;;15.90;99.90;;;;;;4981870;28;20483;-69
2021/07/29 06:09:13;;;;;;;5.87;4.47;;;16.10;99.90;;;;;;4982806;28;20462;-68
2021/07/29 06:11:41;;;;;;;7.30;4.23;;;16.20;99.90;;;;;;4982496;28;20787;-68
2021/07/29 06:14:09;;;;;;;7.60;4.20;;;16.40;99.90;;;;;;4974330;28;20521;-68
2021/07/29 06:16:36;;;;;;;7.57;3.90;;;16.60;99.90;;;;;;4984732;28;20517;-69
2021/07/29 06:19:07;;;;;;;6.80;3.87;;;16.60;99.90;;;;;;4984681;28;20493;-69
2021/07/29 06:21:34;;;;;;;9.60;4.27;;;16.40;99.90;;;;;;4976255;28;20465;-69
2021/07/29 06:24:02;;;;;;;4.07;3.60;;;16.30;99.90;;;;;;4984969;28;20450;-69
2021/07/29 06:26:32;;;;;;;5.67;3.97;;;16.30;99.90;;;;;;4983901;28;20454;-69
2021/07/29 06:29:01;;;;;;;8.63;4.17;;;16.40;99.90;;;;;;4975461;28;20557;-69
2021/07/29 06:31:28;;;;;;;7.93;4.83;;;16.50;99.90;;;;;;4978766;28;20450;-68
2021/07/29 06:33:55;;;;;;;9.40;4.00;;;16.40;99.90;;;;;;4983289;28;20453;-68
2021/07/29 06:36:23;;;;;;;7.27;4.07;;;16.50;99.90;;;;;;4982762;28;20894;-68
2021/07/29 06:38:49;;;;;;;7.70;4.07;;;16.50;99.90;;;;;;4983364;28;20462;-68
2021/07/29 06:41:20;;;;;;;8.43;4.47;;;16.40;99.90;;;;;;4980411;28;20461;-67
2021/07/29 06:43:47;;;;;;;11.07;4.40;;;16.30;99.90;;;;;;4982469;28;20465;-68
2021/07/29 06:46:17;;;;;;;7.10;4.00;;;16.40;99.90;;;;;;4995542;28;20994;-66
2021/07/29 06:48:44;;;;;;;4.83;4.00;;;16.60;99.90;;;;;;4997823;28;20886;-66
2021/07/29 06:51:11;;;;;;;4.90;3.30;;;16.70;99.90;;;;;;4998343;28;20804;-66
2021/07/29 06:53:38;;;;;;;6.03;4.93;;;16.90;99.90;;;;;;4997791;28;20468;-66
2021/07/29 06:56:06;;;;;;;5.37;3.87;;;16.90;99.90;;;;;;4997823;28;20540;-66
2021/07/29 06:58:34;;;;;;;10.67;4.47;;;16.80;99.90;;;;;;4997702;28;20464;-65
2021/07/29 07:01:02;;;;;;;7.50;4.57;;;16.90;99.90;;;;;;4994760;28;20458;-65
2021/07/29 07:03:31;;;;;;;6.73;3.87;;;17.20;99.90;;;;;;4978041;28;20478;-65
2021/07/29 07:06:00;;;;;;;8.80;4.33;;;17.70;99.90;;;;;;4994924;28;20473;-64
2021/07/29 07:08:27;;;;;;;5.10;3.57;;;18.00;99.90;;;;;;4981353;28;20874;-64
2021/07/29 07:10:54;;;;;;;6.83;4.17;;;18.10;99.90;;;;;;4997486;28;20476;-64
2021/07/29 07:13:21;;;;;;;4.23;3.23;;;18.20;99.90;;;;;;4997246;28;20890;-63
2021/07/29 07:15:48;;;;;;;5.83;3.60;;;18.50;99.90;;;;;;4997812;28;20554;-64
2021/07/29 07:18:18;;;;;;;8.17;3.93;;;18.50;99.90;;;;;;4997888;28;20504;-63
2021/07/29 07:20:50;;;;;;;6.63;3.63;;;18.20;99.90;;;;;;4997365;28;20528;-63
2021/07/29 07:23:17;;;;;;;5.20;4.27;;;18.40;99.90;;;;;;4997209;28;20898;-63
2021/07/29 07:25:44;;;;;;;5.37;4.10;;;18.40;99.90;;;;;;4997467;28;20465;-63
2021/07/29 07:28:12;;;;;;;6.73;3.70;;;18.50;99.90;;;;;;4997552;28;20562;-62
2021/07/29 07:30:40;;;;;;;7.80;3.37;;;18.90;99.90;;;;;;4997422;28;20527;-62
2021/07/29 07:33:11;;;;;;;6.80;3.40;;;18.70;99.90;;;;;;4997790;28;20503;-63
2021/07/29 07:35:38;;;;;;;4.40;3.30;;;18.70;99.90;;;;;;4996110;28;20586;-63
2021/07/29 07:38:09;;;;;;;7.53;4.30;;;19.00;99.90;;;;;;4997333;28;20472;-63
2021/07/29 07:40:37;;;;;;;7.47;3.80;;;19.20;99.90;;;;;;4997378;28;20468;-64
2021/07/29 07:43:04;;;;;;;6.97;3.87;;;19.20;99.90;;;;;;4997827;28;20519;-62
2021/07/29 07:45:31;;;;;;;6.00;3.27;;;19.10;99.90;;;;;;4997217;28;20492;-62
2021/07/29 07:47:59;;;;;;;7.90;3.23;;;19.40;99.80;;;;;;4997205;28;20473;-62
2021/07/29 07:50:26;;;;;;;7.13;3.20;;;19.40;98.20;;;;;;4996937;28;20786;-62
2021/07/29 07:52:52;;;;;;;5.30;3.00;;;19.50;96.40;;;;;;4997627;28;20519;-62
2021/07/29 07:55:21;;;;;;;4.97;3.53;;;19.80;95.60;;;;;;4997069;28;20496;-62
2021/07/29 07:57:48;;;;;;;7.73;3.73;;;19.70;94.80;;;;;;4997404;28;20491;-61
2021/07/29 08:00:16;;;;;;;6.47;3.00;;;19.80;94.50;;;;;;4996922;28;20531;-62
2021/07/29 08:02:43;;;;;;;5.13;2.87;;;19.50;94.80;;;;;;4994726;28;20465;-62
2021/07/29 08:05:12;;;;;;;6.93;3.03;;;19.90;96.10;;;;;;4986969;28;20472;-61
2021/07/29 08:07:39;;;;;;;6.90;3.47;;;19.90;94.20;;;;;;4997325;28;20913;-62
2021/07/29 08:10:08;;;;;;;6.63;3.40;;;19.40;94.20;;;;;;5000469;28;20564;-62
2021/07/29 08:12:38;;;;;;;6.03;3.27;;;18.70;95.60;;;;;;5001080;28;20464;-61
2021/07/29 08:15:08;;;;;;;8.47;3.80;;;18.20;99.00;;;;;;5000974;28;20995;-62
2021/07/29 08:17:35;;;;;;;6.90;3.67;;;18.10;99.90;;;;;;5000673;28;20472;-61
2021/07/29 08:20:02;;;;;;;7.33;3.97;;;18.40;99.90;;;;;;5000773;28;20465;-61
2021/07/29 08:22:29;;;;;;;8.20;4.20;;;18.30;99.90;;;;;;5000354;28;20491;-58
2021/07/29 08:24:57;;;;;;;6.63;3.53;;;18.90;99.90;;;;;;5000824;28;20865;-61
2021/07/29 08:27:24;;;;;;;5.67;3.60;;;18.80;95.90;;;;;;5000423;28;20527;-61
2021/07/29 08:29:52;;;;;;;9.63;3.50;;;18.70;98.60;;;;;;5000525;28;20472;-61
2021/07/29 08:32:21;;;;;;;4.57;3.20;;;19.20;95.70;;;;;;5000328;28;20522;-61
2021/07/29 08:34:51;;;;;;;9.50;3.70;;;19.70;93.50;;;;;;5000669;28;20805;-60
2021/07/29 08:37:18;;;;;;;7.23;3.30;;;20.10;93.80;;;;;;5000193;28;20465;-55
2021/07/29 08:39:47;;;;;;;7.10;3.40;;;20.90;90.70;;;;;;5000076;28;20456;-57
2021/07/29 08:42:15;;;;;;;6.83;3.30;;;20.80;88.90;;;;;;5000233;28;20814;-56
2021/07/29 08:44:44;;;;;;;8.60;3.07;;;20.40;87.20;;;;;;5000562;28;20512;-56
2021/07/29 08:47:19;;;;;;;4.73;2.80;;;20.70;85.60;;;;;;5000336;28;20535;-58
2021/07/29 08:49:55;;;;;;;5.10;3.60;;;21.30;81.50;;;;;;5000264;28;20531;-58
2021/07/29 08:52:22;;;;;;;4.50;3.33;;;21.00;79.50;;;;;;5000073;28;20460;-56
2021/07/29 08:54:52;;;;;;;5.57;3.83;;;21.10;81.30;;;;;;5000602;28;20465;-56
2021/07/29 08:57:28;;;;;;;10.80;3.53;;;21.10;79.50;;;;;;4999741;28;20464;-60
2021/07/29 08:59:55;;;;;;;7.40;3.20;;;21.00;76.60;;;;;;5000202;28;20466;-57
2021/07/29 09:02:27;;;;;;;4.43;2.77;;;20.20;79.10;;;;;;4999856;28;20608;-60
2021/07/29 09:05:15;;;;;;;4.60;3.20;;;19.70;77.80;;;;;;4989761;28;20465;-59
2021/07/29 09:07:43;;;;;;;9.20;3.37;;;19.40;79.80;;;;;;4994029;28;20555;-58
2021/07/29 09:10:24;;;;;;;5.83;3.30;;;19.70;79.20;;;;;;4999587;28;20771;-55
2021/07/29 09:13:12;;;;;;;4.00;3.07;;;20.30;81.40;;;;;;4999375;28;20508;-58
2021/07/29 09:15:40;;;;;;;3.80;3.17;;;21.10;77.80;;;;;;5000154;28;20614;-56
2021/07/29 09:18:09;;;;;;;8.50;3.43;;;21.30;75.10;;;;;;4999578;28;20973;-60
2021/07/29 09:20:38;;;;;;;4.67;2.80;;;21.50;75.30;;;;;;4998961;28;20475;-60
2021/07/29 09:23:20;;;;;;;3.60;2.80;;;21.80;70.80;;;;;;4999586;28;20890;-57
2021/07/29 09:26:00;;;;;;;3.87;2.80;;;21.70;71.00;;;;;;4999612;28;20488;-57
2021/07/29 09:28:37;;;;;;;4.13;2.70;;;22.50;69.40;;;;;;4999682;28;20883;-56
2021/07/29 09:31:19;;;;;;;3.83;2.90;;;22.70;67.00;;;;;;4999685;28;20889;-58
2021/07/29 09:34:01;;;;;;;5.23;3.10;;;21.50;64.70;;;;;;4999547;28;20471;-59
2021/07/29 09:36:32;;;;;;;4.23;3.17;;;20.50;70.40;;;;;;4999523;28;20500;-57
2021/07/29 09:39:21;;;;;;;8.43;3.80;;;20.20;71.60;;;;;;4998506;28;20957;-59
2021/07/29 09:41:50;;;;;;;6.13;3.30;;;20.00;70.20;;;;;;4998458;28;20535;-54
2021/07/29 09:44:40;;;;;;;7.93;3.17;;;19.50;72.00;;;;;;4991517;28;20539;-59
2021/07/29 09:47:08;;;;;;;6.13;3.10;;;19.10;73.80;;;;;;4999329;28;20523;-57
2021/07/29 09:49:38;;;;;;;8.30;3.10;;;19.40;74.90;;;;;;4998130;28;20475;-60
2021/07/29 09:52:06;;;;;;;10.57;3.50;;;19.60;73.00;;;;;;4999243;28;20890;-59
2021/07/29 10:29:25;;;;;;;4.60;3.13;;;20.60;68.10;;;;;;3105977;23;20528;-58
2021/07/29 10:31:59;;;;;;;7.20;3.20;;;21.70;65.60;;;;;;4979323;28;20623;-55
2021/07/29 10:34:28;;;;;;;3.60;2.93;;;22.20;64.00;;;;;;4977823;28;20477;-53
2021/07/29 10:36:56;;;;;;;4.53;2.97;;;22.40;62.80;;;;;;4978088;28;20494;-55
2021/07/29 10:39:26;;;;;;;5.20;3.03;;;22.70;61.70;;;;;;4977256;28;20482;-53
2021/07/29 10:41:58;;;;;;;5.43;2.90;;;22.80;60.80;;;;;;4978474;28;20521;-56
2021/07/29 10:44:50;;;;;;;6.10;3.23;;;23.20;59.60;;;;;;4978260;28;20466;-54
2021/07/29 10:47:41;;;;;;;6.33;3.03;;;22.90;59.90;;;;;;4966342;28;20533;-54
2021/07/29 10:50:22;;;;;;;5.40;3.70;;;22.70;59.60;;;;;;4978533;28;20536;-57
2021/07/29 10:52:55;;;;;;;4.77;3.57;;;22.00;61.40;;;;;;4979213;28;20501;-54
2021/07/29 10:55:23;;;;;;;4.13;3.20;;;21.80;62.90;;;;;;4971456;28;20556;-57
2021/07/29 10:58:01;;;;;;;5.77;2.93;;;21.40;62.50;;;;;;4978336;28;20461;-59
2021/07/29 11:00:30;;;;;;;4.23;3.70;;;21.20;63.50;;;;;;4977997;28;20469;-54
2021/07/29 11:03:03;;;;;;;4.07;3.33;;;21.80;63.30;;;;;;4975226;28;20552;-56
2021/07/29 11:05:41;;;;;;;6.30;3.80;;;21.60;62.10;;;;;;4973586;28;20910;-57
2021/07/29 11:08:11;;;;;;;4.27;3.57;;;21.30;63.00;;;;;;4978036;28;20465;-56
2021/07/29 11:10:41;;;;;;;6.10;3.40;;;22.50;63.50;;;;;;4977872;28;20512;-55
2021/07/29 11:13:09;;;;;;;8.40;3.87;;;22.70;58.80;;;;;;4978378;28;20458;-55
2021/07/29 11:15:43;;;;;;;4.90;3.50;;;23.30;58.10;;;;;;4977811;28;20497;-59
2021/07/29 11:18:15;;;;;;;4.77;3.40;;;23.70;57.20;;;;;;4977830;28;20528;-56
2021/07/29 11:20:42;;;;;;;6.20;3.60;;;23.70;56.40;;;;;;4977970;28;20474;-55
2021/07/29 11:23:13;;;;;;;4.80;3.20;;;23.40;56.70;;;;;;4978405;28;20458;-55
2021/07/29 11:25:56;;;;;;;4.40;2.93;;;22.70;56.70;;;;;;4977502;28;20466;-57
2021/07/29 11:28:23;;;;;;;4.70;3.33;;;22.40;58.60;;;;;;4978193;28;20622;-57
2021/07/29 11:30:52;;;;;;;4.33;3.17;;;21.80;59.50;;;;;;4977912;28;20470;-58
2021/07/29 11:33:23;;;;;;;5.80;4.00;;;21.70;61.50;;;;;;4977903;28;20560;-57
2021/07/29 11:35:52;;;;;;;9.60;3.90;;;22.40;59.60;;;;;;4978163;28;20829;-58
2021/07/29 11:38:25;;;;;;;5.30;3.87;;;22.00;59.60;;;;;;4978380;28;20874;-55
2021/07/29 11:41:05;;;;;;;4.93;3.23;;;21.30;60.40;;;;;;4977764;28;20498;-56
2021/07/29 11:43:33;;;;;;;4.20;3.80;;;21.10;58.50;;;;;;4979301;28;20565;-59
2021/07/29 11:46:24;;;;;;;3.83;3.20;;;21.10;59.00;;;;;;4981751;28;20978;-51
2021/07/29 11:49:05;;;;;;;5.80;3.03;;;21.20;59.20;;;;;;4982186;28;20482;-57
2021/07/29 11:51:33;;;;;;;4.23;2.83;;;22.00;59.50;;;;;;4981653;28;20469;-59
2021/07/29 11:54:00;;;;;;;5.30;3.47;;;23.10;57.80;;;;;;4981721;28;20537;-51
2021/07/29 11:56:28;;;;;;;4.63;3.00;;;22.60;56.30;;;;;;4981938;28;21057;-57
2021/07/29 11:58:59;;;;;;;10.67;3.80;;;21.90;56.40;;;;;;4982155;28;20560;-56
2021/07/29 12:01:28;;;;;;;4.93;3.33;;;21.50;58.10;;;;;;4982068;28;20465;-54
2021/07/29 12:03:57;;;;;;;5.10;3.67;;;21.30;59.00;;;;;;4975058;28;20469;-57
2021/07/29 12:06:26;;;;;;;8.13;3.53;;;21.00;59.50;;;;;;5000009;28;20515;-58
2021/07/29 12:08:57;;;;;;;4.60;3.60;;;20.90;60.90;;;;;;5000945;28;20460;-57
2021/07/29 12:11:31;;;;;;;7.27;3.80;;;21.00;60.60;;;;;;5000837;28;20476;-57
2021/07/29 12:14:01;;;;;;;5.00;3.53;;;21.60;59.20;;;;;;5001157;28;21105;-57
2021/07/29 12:16:49;;;;;;;6.23;3.80;;;22.00;57.00;;;;;;5000620;28;20840;-58
2021/07/29 12:19:17;;;;;;;4.27;3.13;;;21.30;56.30;;;;;;5000936;28;20475;-57
2021/07/29 12:21:45;;;;;;;4.73;3.30;;;21.00;57.30;;;;;;5000480;28;20769;-57
2021/07/29 12:24:13;;;;;;;5.53;4.00;;;20.90;57.80;;;;;;5001307;28;20801;-57
2021/07/29 12:26:41;;;;;;;5.70;3.10;;;21.30;60.60;;;;;;5000458;28;20461;-51
2021/07/29 12:29:08;;;;;;;4.60;3.27;;;22.60;59.90;;;;;;5000716;28;20539;-50
2021/07/29 12:31:35;;;;;;;5.83;3.07;;;22.50;57.50;;;;;;4996304;28;20831;-58
2021/07/29 12:34:05;;;;;;;3.97;2.87;;;22.90;57.90;;;;;;4986563;28;20498;-58
2021/07/29 12:36:42;;;;;;;5.20;3.20;;;23.30;56.30;;;;;;4981758;28;20552;-54
2021/07/29 12:39:13;;;;;;;6.73;3.50;;;22.90;53.60;;;;;;4981172;28;20551;-54
2021/07/29 12:41:42;;;;;;;6.60;3.20;;;22.60;55.00;;;;;;4980805;28;20898;-53
2021/07/29 12:44:14;;;;;;;3.70;3.37;;;22.30;54.60;;;;;;4981170;28;20469;-56
2021/07/29 12:46:46;;;;;;;4.77;3.00;;;21.90;56.00;;;;;;4981205;28;20882;-52
2021/07/29 12:49:15;;;;;;;5.60;3.83;;;22.60;55.90;;;;;;4980988;28;20462;-58
2021/07/29 12:51:48;;;;;;;6.00;3.80;;;23.10;55.20;;;;;;4980476;28;20786;-50
2021/07/29 12:54:18;;;;;;;4.67;3.20;;;22.40;54.20;;;;;;4972410;28;20469;-50
2021/07/29 12:56:46;;;;;;;6.40;3.87;;;22.80;54.50;;;;;;4979817;28;20493;-53
2021/07/29 12:59:20;;;;;;;6.60;3.77;;;23.20;53.90;;;;;;4980557;28;20505;-53
2021/07/29 13:01:48;;;;;;;6.07;4.13;;;23.40;53.80;;;;;;4980105;28;20795;-55
2021/07/29 13:04:24;;;;;;;8.03;3.80;;;24.00;53.00;;;;;;4974723;28;20482;-56
2021/07/29 13:06:51;;;;;;;5.37;3.70;;;23.90;52.10;;;;;;4985640;28;20458;-58
2021/07/29 13:09:18;;;;;;;8.30;4.10;;;23.50;52.70;;;;;;4989765;28;20556;-56
2021/07/29 13:11:46;;;;;;;6.70;4.60;;;22.90;53.90;;;;;;4985689;28;20760;-58
2021/07/29 13:14:14;;;;;;;7.17;4.13;;;22.80;55.40;;;;;;4989526;28;20472;-52
2021/07/29 13:16:41;;;;;;;4.80;3.17;;;22.30;55.70;;;;;;4999220;28;20532;-58
2021/07/29 13:19:08;;;;;;;6.00;3.80;;;22.90;55.70;;;;;;4988663;28;20524;-58
2021/07/29 13:21:39;;;;;;;12.93;4.20;;;23.30;54.50;;;;;;4979886;28;20529;-58
2021/07/29 13:24:11;;;;;;;8.00;4.63;;;23.80;53.40;;;;;;4980064;28;20466;-58
2021/07/29 13:26:38;;;;;;;5.70;3.20;;;24.20;53.00;;;;;;4980402;28;20469;-59
2021/07/29 13:29:05;;;;;;;10.83;3.80;;;23.60;53.40;;;;;;4989039;28;20492;-58
2021/07/29 13:31:32;;;;;;;7.43;3.83;;;23.10;53.70;;;;;;4979707;28;20473;-58
2021/07/29 13:34:02;;;;;;;3.67;3.37;;;23.00;55.10;;;;;;4980144;28;20470;-53
2021/07/29 13:36:29;;;;;;;4.37;3.50;;;23.50;54.40;;;;;;4980259;28;20497;-54
2021/07/29 13:38:58;;;;;;;7.00;3.67;;;23.30;52.00;;;;;;4983989;28;20512;-56
2021/07/29 13:41:29;;;;;;;4.30;2.87;;;22.50;51.50;;;;;;4979972;28;20839;-55
2021/07/29 13:44:06;;;;;;;6.03;3.50;;;22.10;52.80;;;;;;4979817;28;20485;-52
2021/07/29 13:46:33;;;;;;;7.67;3.40;;;22.00;54.10;;;;;;4979789;28;20470;-53
2021/07/29 13:49:00;;;;;;;4.10;3.13;;;21.80;54.20;;;;;;4980782;28;20733;-53
2021/07/29 13:51:27;;;;;;;8.60;3.03;;;21.60;54.50;;;;;;4999377;28;20837;-57
2021/07/29 13:53:54;;;;;;;7.07;3.57;;;21.60;55.40;;;;;;4990930;28;20454;-55
2021/07/29 13:56:23;;;;;;;3.77;3.37;;;21.40;55.30;;;;;;4979540;28;20588;-56
2021/07/29 13:58:52;;;;;;;6.83;3.77;;;21.90;56.20;;;;;;4979680;28;20564;-56
2021/07/29 14:01:25;;;;;;;4.17;3.03;;;23.00;54.70;;;;;;4979904;28;20465;-54
2021/07/29 14:03:52;;;;;;;5.80;4.37;;;23.80;53.10;;;;;;4977303;28;20473;-58
2021/07/29 14:44:59;;;;;;;5.73;3.83;;;24.40;51.10;;;;;;5057629;23;21012;-57
2021/07/29 14:50:20;;;;;;;8.07;3.77;;;23.20;52.00;;;;;;5016404;28;20442;-57
2021/07/29 14:52:51;;;;;;;5.87;3.73;;;22.70;52.90;;;;;;5017988;28;20958;-58
2021/07/29 14:55:26;;;;;;;7.30;4.10;;;22.20;53.70;;;;;;5017013;28;20468;-58
2021/07/29 16:07:31;;;;;;;4.70;3.63;;;22.10;57.20;;;;;;4996403;28;20444;-55
2021/07/29 16:09:58;;;;;;;4.67;3.37;;;22.50;57.40;;;;;;5011869;28;20488;-57
2021/07/29 16:12:28;;;;;;;4.63;3.23;;;22.80;56.20;;;;;;5015520;28;20522;-54
2021/07/29 16:14:56;;;;;;;7.37;4.00;;;22.70;55.80;;;;;;4996515;28;20468;-55
2021/07/29 16:17:24;;;;;;;6.17;4.00;;;22.30;56.80;;;;;;4996279;28;20504;-57
2021/07/29 16:19:51;;;;;;;4.77;3.70;;;21.70;57.40;;;;;;4996122;28;20905;-53
2021/07/29 16:22:18;;;;;;;6.00;3.70;;;21.40;58.40;;;;;;5007629;28;20460;-54
2021/07/29 16:24:46;;;;;;;4.40;3.70;;;21.10;59.60;;;;;;5015600;28;20838;-54
2021/07/29 16:27:14;;;;;;;6.80;3.80;;;21.00;60.40;;;;;;5016180;28;20455;-52
2021/07/29 16:29:42;;;;;;;5.23;3.93;;;21.20;61.00;;;;;;5017273;28;20468;-54
2021/07/29 16:32:11;;;;;;;6.83;4.20;;;21.60;60.20;;;;;;5019043;28;20472;-53
2021/07/29 16:34:39;;;;;;;8.30;3.47;;;21.70;59.30;;;;;;5018642;28;20468;-55
2021/07/29 16:37:06;;;;;;;5.87;3.73;;;21.80;59.40;;;;;;5019378;28;20487;-53
2021/07/29 16:39:35;;;;;;;5.90;3.90;;;21.90;59.20;;;;;;5006254;28;20519;-56
2021/07/29 16:42:05;;;;;;;10.83;3.93;;;21.70;59.10;;;;;;4999887;28;20469;-57
2021/07/29 16:44:35;;;;;;;8.53;3.40;;;21.80;59.30;;;;;;4952657;28;1361620;-57
2021/07/29 16:47:06;;;;;;;9.00;4.17;;;22.10;59.30;;;;;;5001003;28;20202;-54
2021/07/29 16:49:36;;;;;;;4.67;4.20;;;21.70;57.40;;;;;;5000840;28;20563;-55
2021/07/29 17:26:30;;;;;;;5.70;4.40;;;20.90;58.60;;;;;;5341470;23;20442;-53
2021/07/29 17:29:00;;;;;;;13.27;4.07;;;20.80;58.50;;;;;;5019111;28;20444;-56
2021/07/29 17:31:27;;;;;;;8.03;4.10;;;21.00;58.70;;;;;;5020221;28;20805;-57
2021/07/29 17:33:55;;;;;;;6.20;4.00;;;20.90;58.90;;;;;;5018822;28;20522;-58
2021/07/29 17:36:22;;;;;;;10.70;4.70;;;20.80;58.60;;;;;;5018980;28;20464;-57
2021/07/29 17:38:51;;;;;;;6.57;3.77;;;20.70;58.20;;;;;;5019006;28;20484;-54
2021/07/29 17:41:18;;;;;;;4.67;3.57;;;20.70;58.70;;;;;;5018197;28;20460;-53
2021/07/29 17:43:48;;;;;;;6.23;4.17;;;20.60;59.00;;;;;;5019289;28;20594;-56
2021/07/29 17:46:17;;;;;;;6.00;4.17;;;20.50;59.80;;;;;;5019096;28;20522;-57
2021/07/29 17:48:49;;;;;;;8.50;3.80;;;20.50;59.90;;;;;;5019153;28;20551;-57
2021/07/29 17:51:16;;;;;;;4.90;3.87;;;20.50;60.50;;;;;;5018507;28;20464;-56
2021/07/29 17:53:43;;;;;;;5.30;3.70;;;20.40;61.00;;;;;;5018699;28;20824;-53
2021/07/29 17:56:17;;;;;;;7.27;4.67;;;20.30;61.90;;;;;;5018020;28;20522;-55
2021/07/29 17:58:44;;;;;;;4.73;4.23;;;20.30;62.20;;;;;;5019346;28;20554;-56
2021/07/29 18:01:12;;;;;;;6.30;4.57;;;20.30;62.20;;;;;;5018425;28;20526;-54
2021/07/29 18:03:39;;;;;;;8.83;5.00;;;20.20;62.30;;;;;;5011513;28;20976;-55
2021/07/29 18:06:07;;;;;;;6.27;3.90;;;20.20;62.90;;;;;;5016052;28;20479;-57
2021/07/29 18:08:40;;;;;;;6.40;4.17;;;20.10;62.70;;;;;;5018764;28;20476;-54
2021/07/29 18:11:09;;;;;;;5.70;4.40;;;20.10;61.60;;;;;;5018568;28;20901;-56
2021/07/29 18:13:38;;;;;;;5.37;4.00;;;20.00;61.60;;;;;;5018088;28;20464;-55
2021/07/29 18:16:06;;;;;;;9.73;4.80;;;19.80;62.10;;;;;;5017920;28;20464;-58
2021/07/29 18:18:34;;;;;;;11.60;4.57;;;19.70;63.20;;;;;;5017750;28;20496;-57
2021/07/29 18:21:04;;;;;;;5.30;4.43;;;19.70;64.20;;;;;;5017456;28;20459;-58
2021/07/29 18:23:31;;;;;;;7.70;4.10;;;19.60;65.10;;;;;;5019460;28;20464;-58
2021/07/29 18:25:58;;;;;;;4.97;4.03;;;19.60;65.80;;;;;;5016340;28;20489;-58
2021/07/29 18:28:28;;;;;;;4.67;4.27;;;19.60;66.20;;;;;;5017666;28;20546;-53
2021/07/29 18:31:00;;;;;;;6.00;3.97;;;19.50;66.20;;;;;;5017966;28;20471;-55
2021/07/29 18:33:30;;;;;;;8.03;4.50;;;19.40;66.40;;;;;;5017710;28;20468;-57
2021/07/29 18:36:01;;;;;;;6.27;4.43;;;19.40;66.60;;;;;;5017615;28;20923;-55
2021/07/29 18:38:29;;;;;;;8.63;3.97;;;19.20;66.70;;;;;;5018173;28;20546;-56
2021/07/29 18:40:56;;;;;;;7.50;4.10;;;19.20;67.50;;;;;;5018205;28;20502;-56
2021/07/29 18:43:23;;;;;;;7.37;4.03;;;19.20;68.70;;;;;;5017979;28;20816;-52
2021/07/29 18:45:52;;;;;;;5.20;4.00;;;19.20;68.10;;;;;;5017780;28;20544;-58
2021/07/29 19:25:19;;;;;;;6.77;3.97;;;18.50;77.50;;;;;;5268805;23;20496;-56
2021/07/29 19:27:47;;;;;;;4.53;3.77;;;18.40;78.90;;;;;;5017481;28;20460;-57
2021/07/29 19:30:14;;;;;;;8.57;4.17;;;18.30;80.20;;;;;;5017209;28;20506;-54
2021/07/29 19:32:42;;;;;;;5.97;4.47;;;18.30;81.50;;;;;;5017530;28;20460;-55
2021/07/29 19:35:10;;;;;;;5.70;4.03;;;18.30;83.20;;;;;;5016878;28;20471;-55